Pagrindinis puslapis
METAR-TAF:

METAR-TAF

Oro uostai :

Bania Luka, Bosnija ir Hercegovina

platuma: 44-47N, ilguma: 017-13E, Aukštis: 156 m

Dabartinis oras

Ataskaita buvo paskelbta 22 minutes, ne 18:30 UTC
Vėjas 2 kt iš Šiaurės Vakarų
Temperatūra 13°C
Drėgmė 82%
Slėgis 1025 hPa
Matomumas 10 km arba daugiau
nėra debesų žemiau 1500 m ir nėra kamuolinių lietaus debesų

METAR: LQBK 191830Z 32002KT CAVOK 13/10 Q1025 NOSIG

Laikas: 20:52 (18:52 UTC)

Prognozė

Ataskaita buvo paskelbta 1 valandą ir 52 minutes, ne 17:00 UTC
Prognozė galioja nuo 19 metu 18 UTC su 20 metu 18 UTC
Vėjas 5 kt iš Rytų/Pietryčių
Matomumas 10 km arba daugiau
nėra debesų žemiau 1500 m ir nėra kamuolinių lietaus debesų
Tikimybė 40% :
Laikinai
nuo 20 metu 12 UTC su 20 metu 17 UTC
Vėjas 10 kt iš Rytų/Šiaurės Rytų

TAF: LQBK 191700Z 1918/2018 12005KT CAVOK TX21/2013Z TN05/2004Z PROB40 TEMPO 2012/2017 06010KT

Orai ataskaitas ir orų prognozės (METAR, TAF).

turimą stotys yra geltonos ir raudonos taškus žemėlapyje.

Perkelti pele per norėdami pamatyti stoties vardą.

Tada spustelėkite, norėdami matyti oro stebėjimo ir prognozės.

Norėdami pakeisti žemėlapį: spustelėkite ant žalios mygtukų su juodo kryžiaus žemyn,; žalią mygtuką su brūkšneliu, jei norite nutolinti; arba žalių rodyklių gretimoms žemėlapius.


METAR-TAF: